createdAt,value
2023-05-24T00:01:34.042Z,73.16
2023-05-24T00:04:01.893Z,70.55
2023-05-24T00:06:29.572Z,72.36
2023-05-24T00:08:57.559Z,71.43
2023-05-24T00:11:27.692Z,71.87
2023-05-24T00:13:55.178Z,69.85
2023-05-24T00:16:22.721Z,70.42
2023-05-24T00:18:50.432Z,69.53
2023-05-24T00:21:17.888Z,69.78
2023-05-24T00:23:45.567Z,70.18
2023-05-24T00:26:13.311Z,70.10
2023-05-24T00:28:42.089Z,69.68
2023-05-24T00:31:09.528Z,70.39
2023-05-24T00:33:36.998Z,70.25
2023-05-24T00:36:04.666Z,70.05
2023-05-24T00:38:32.119Z,70.68
2023-05-24T00:41:01.013Z,68.19
2023-05-24T00:43:28.427Z,70.11
2023-05-24T00:46:14.419Z,71.17
2023-05-24T00:48:42.757Z,69.56
2023-05-24T00:51:10.497Z,69.38
2023-05-24T00:53:38.406Z,68.89
2023-05-24T00:56:07.441Z,68.89
2023-05-24T00:58:35.086Z,70.74
2023-05-24T01:01:04.970Z,69.97
2023-05-24T01:03:33.832Z,69.98
2023-05-24T01:06:03.465Z,69.49
2023-05-24T01:08:47.570Z,67.85
2023-05-24T01:11:26.303Z,70.36
2023-05-24T01:14:05.276Z,69.49
2023-05-24T01:16:46.629Z,69.77
2023-05-24T01:19:43.297Z,70.29
2023-05-24T01:22:25.155Z,71.38
2023-05-24T01:25:02.219Z,71.56
2023-05-24T01:27:32.707Z,72.28
2023-05-24T01:30:00.938Z,72.84
2023-05-24T01:32:29.035Z,70.89
2023-05-24T01:34:56.600Z,70.83
2023-05-24T01:37:24.278Z,72.55
2023-05-24T01:39:53.421Z,68.38
2023-05-24T01:42:26.873Z,70.10
2023-05-24T01:45:04.989Z,70.21
2023-05-24T01:47:43.159Z,70.50
2023-05-24T01:50:18.280Z,72.36
2023-05-24T01:52:47.549Z,70.69
2023-05-24T01:55:18.680Z,71.30
2023-05-24T01:57:49.665Z,71.21
2023-05-24T02:00:21.039Z,70.71
2023-05-24T02:02:48.906Z,72.06
2023-05-24T02:05:16.524Z,70.99
2023-05-24T02:07:43.984Z,69.90
2023-05-24T02:10:11.800Z,71.27
2023-05-24T02:12:39.247Z,70.98
2023-05-24T02:15:07.743Z,72.19
2023-05-24T02:17:36.527Z,70.45
2023-05-24T02:20:04.794Z,72.64
2023-05-24T02:22:32.248Z,75.22
2023-05-24T02:24:59.677Z,73.59
2023-05-24T02:27:27.095Z,73.85
2023-05-24T02:29:54.562Z,74.41
2023-05-24T02:32:22.015Z,74.67
2023-05-24T02:34:50.767Z,74.27
2023-05-24T02:37:18.222Z,73.83
2023-05-24T02:39:45.659Z,72.19
2023-05-24T02:42:13.087Z,71.68
2023-05-24T02:44:42.522Z,73.60
2023-05-24T02:47:09.976Z,71.83
2023-05-24T02:49:37.397Z,72.63
2023-05-24T02:52:06.809Z,73.12
2023-05-24T02:54:34.257Z,74.31
2023-05-24T02:57:01.711Z,73.27
2023-05-24T02:59:29.401Z,73.80
2023-05-24T03:01:57.007Z,73.79
2023-05-24T03:04:24.456Z,74.31
2023-05-24T03:06:53.554Z,73.77
2023-05-24T03:09:22.311Z,74.14
2023-05-24T03:11:49.818Z,76.09
2023-05-24T03:14:17.434Z,74.92
2023-05-24T03:16:45.299Z,74.38
2023-05-24T03:19:12.811Z,73.32
2023-05-24T03:21:40.273Z,73.84
2023-05-24T03:24:09.520Z,73.70
2023-05-24T03:26:38.274Z,73.85
2023-05-24T03:29:05.737Z,73.04
2023-05-24T03:31:33.180Z,73.13
2023-05-24T03:34:00.700Z,72.29
2023-05-24T03:36:28.932Z,72.79
2023-05-24T03:38:58.276Z,73.85
2023-05-24T03:41:26.213Z,72.88
2023-05-24T03:43:55.071Z,74.41
2023-05-24T03:46:22.600Z,73.78
2023-05-24T03:48:50.143Z,73.53
2023-05-24T03:51:18.089Z,74.19
2023-05-24T03:53:46.185Z,73.47
2023-05-24T03:56:13.586Z,74.53
2023-05-24T03:58:41.045Z,74.03
2023-05-24T04:01:12.585Z,72.71
2023-05-24T04:03:46.082Z,73.42
2023-05-24T04:06:16.190Z,72.48
2023-05-24T04:08:44.940Z,71.57
2023-05-24T04:11:12.448Z,72.77
2023-05-24T04:13:39.841Z,72.56
2023-05-24T04:16:09.642Z,71.33
2023-05-24T04:18:38.498Z,71.25
2023-05-24T04:21:06.162Z,70.62
2023-05-24T04:23:33.569Z,71.80
2023-05-24T04:26:01.216Z,71.63
2023-05-24T04:28:28.714Z,72.81
2023-05-24T04:30:57.677Z,72.25
2023-05-24T04:33:25.181Z,68.30
2023-05-24T04:35:54.001Z,67.33
2023-05-24T04:38:22.161Z,67.80
2023-05-24T04:40:49.667Z,67.59
2023-05-24T04:43:17.077Z,69.54
2023-05-24T04:45:44.512Z,71.50
2023-05-24T04:48:12.149Z,69.99
2023-05-24T04:50:40.126Z,70.68
2023-05-24T04:53:08.996Z,70.50
2023-05-24T04:55:36.420Z,70.31
2023-05-24T04:58:04.338Z,70.08
2023-05-24T05:00:32.789Z,70.07
2023-05-24T05:03:00.444Z,71.88
2023-05-24T05:05:27.988Z,70.47
2023-05-24T05:07:55.608Z,70.76
2023-05-24T05:10:24.395Z,70.42
2023-05-24T05:12:51.963Z,70.68
2023-05-24T05:15:19.448Z,72.06
2023-05-24T05:17:46.916Z,70.65
2023-05-24T05:20:14.418Z,70.96
2023-05-24T05:22:46.811Z,72.84
2023-05-24T05:25:14.296Z,72.01
2023-05-24T05:27:43.134Z,71.01
2023-05-24T05:30:11.495Z,71.09
2023-05-24T05:32:39.059Z,70.47
2023-05-24T05:35:07.552Z,70.08
2023-05-24T05:37:35.052Z,70.88
2023-05-24T05:40:03.928Z,71.54
2023-05-24T05:42:31.384Z,70.35
2023-05-24T05:45:00.214Z,69.21
2023-05-24T05:47:27.692Z,69.65
2023-05-24T05:49:55.188Z,69.37
2023-05-24T05:52:22.626Z,70.98
2023-05-24T05:54:50.247Z,71.22
2023-05-24T05:57:19.671Z,70.94
2023-05-24T05:59:47.104Z,71.09
2023-05-24T06:02:16.015Z,68.86
2023-05-24T06:04:43.506Z,69.89
2023-05-24T06:07:11.022Z,69.11
2023-05-24T06:09:38.566Z,70.98
2023-05-24T06:12:06.621Z,71.54
2023-05-24T06:14:34.430Z,71.50
2023-05-24T06:17:02.102Z,70.86
2023-05-24T06:19:31.078Z,69.83
2023-05-24T06:21:58.572Z,71.02
2023-05-24T06:24:26.047Z,69.77
2023-05-24T06:26:54.056Z,69.49
2023-05-24T06:29:22.287Z,70.57
2023-05-24T06:31:50.927Z,70.41
2023-05-24T06:34:21.138Z,71.55
2023-05-24T06:36:52.958Z,69.84
2023-05-24T06:39:20.914Z,71.35
2023-05-24T06:41:51.179Z,73.28
2023-05-24T06:44:18.782Z,71.20
2023-05-24T06:46:46.485Z,73.64
2023-05-24T06:49:14.066Z,70.97
2023-05-24T06:51:41.668Z,69.08
2023-05-24T06:54:10.489Z,71.05
2023-05-24T06:56:37.947Z,72.25
2023-05-24T06:59:05.920Z,72.84
2023-05-24T07:01:33.747Z,72.17
2023-05-24T07:04:01.294Z,71.71
2023-05-24T07:06:28.756Z,70.77
2023-05-24T07:08:56.189Z,73.04
2023-05-24T07:11:25.217Z,71.75
2023-05-24T07:13:52.683Z,73.49
2023-05-24T07:16:20.246Z,73.04
2023-05-24T07:18:47.758Z,72.30
2023-05-24T07:21:15.194Z,72.35
2023-05-24T07:23:42.663Z,70.31
2023-05-24T07:26:10.097Z,68.41
2023-05-24T07:28:40.441Z,70.07
2023-05-24T07:31:09.910Z,70.60
2023-05-24T07:33:38.135Z,69.09
2023-05-24T07:36:07.080Z,70.87
2023-05-24T07:38:35.176Z,70.51
2023-05-24T07:41:04.694Z,68.28
2023-05-24T07:43:32.164Z,68.65
2023-05-24T07:46:01.144Z,67.05
2023-05-24T07:48:28.612Z,65.90
2023-05-24T07:50:56.822Z,67.85
2023-05-24T07:53:24.343Z,67.52
2023-05-24T07:55:51.914Z,66.87
2023-05-24T07:58:19.482Z,68.16
2023-05-24T08:00:46.898Z,68.65
2023-05-24T08:03:17.421Z,67.29
2023-05-24T08:05:45.129Z,74.81
2023-05-24T08:08:12.809Z,75.20
2023-05-24T08:10:40.265Z,69.84
2023-05-24T08:13:07.961Z,65.70
2023-05-24T08:15:35.395Z,70.91
2023-05-24T08:18:03.509Z,69.32
2023-05-24T08:20:36.120Z,66.10
2023-05-24T08:23:03.749Z,66.80
2023-05-24T08:25:31.588Z,63.71
2023-05-24T08:27:59.074Z,67.59
2023-05-24T08:30:26.508Z,64.86
2023-05-24T08:32:53.961Z,62.50
2023-05-24T08:35:22.235Z,68.29
2023-05-24T08:37:51.573Z,63.58
2023-05-24T08:40:19.255Z,62.17
2023-05-24T08:42:47.114Z,60.24
2023-05-24T08:45:16.119Z,63.58
2023-05-24T08:47:44.131Z,67.03
2023-05-24T08:50:12.072Z,63.92
2023-05-24T08:52:41.390Z,63.87
2023-05-24T08:55:12.372Z,63.99
2023-05-24T08:57:41.623Z,65.60
2023-05-24T09:00:11.796Z,62.87
2023-05-24T09:02:40.572Z,63.98
2023-05-24T09:05:11.434Z,64.74
2023-05-24T09:07:39.378Z,63.33
2023-05-24T09:10:08.950Z,65.31
2023-05-24T09:12:39.713Z,64.62
2023-05-24T09:15:09.491Z,64.26
2023-05-24T09:17:37.950Z,62.27
2023-05-24T09:20:10.028Z,66.06
2023-05-24T09:22:40.783Z,66.50
2023-05-24T09:25:10.858Z,64.30
2023-05-24T09:27:39.932Z,64.10
2023-05-24T09:30:11.206Z,66.24
2023-05-24T09:32:39.175Z,63.83
2023-05-24T09:35:10.309Z,65.50
2023-05-24T09:37:40.256Z,66.00
2023-05-24T09:40:18.353Z,68.57
2023-05-24T09:42:48.956Z,67.49
2023-05-24T09:45:16.623Z,67.57
2023-05-24T09:47:45.421Z,66.79
2023-05-24T09:50:14.407Z,67.72
2023-05-24T09:52:42.713Z,66.15
2023-05-24T09:55:13.383Z,68.35
2023-05-24T09:57:41.196Z,69.24
2023-05-24T10:00:17.690Z,68.58
2023-05-24T10:02:53.480Z,68.55
2023-05-24T10:05:22.207Z,69.65
2023-05-24T10:07:49.911Z,67.84
2023-05-24T10:10:17.838Z,67.23
2023-05-24T10:12:46.993Z,64.41
2023-05-24T10:15:16.621Z,65.96
2023-05-24T10:17:44.372Z,64.37
2023-05-24T10:20:13.505Z,64.09
2023-05-24T10:22:46.309Z,61.39
2023-05-24T10:25:19.415Z,59.59
2023-05-24T10:27:49.580Z,58.42
2023-05-24T10:30:27.964Z,58.01
2023-05-24T10:32:57.863Z,57.46
2023-05-24T10:35:26.881Z,57.85
2023-05-24T10:37:55.694Z,56.88
2023-05-24T10:40:26.049Z,59.95
2023-05-24T10:42:54.260Z,60.79
2023-05-24T10:45:35.596Z,63.79
2023-05-24T10:48:10.371Z,58.87
2023-05-24T10:50:37.864Z,58.40
2023-05-24T10:53:15.906Z,57.46
2023-05-24T10:55:53.698Z,57.55
2023-05-24T10:58:21.731Z,58.95
2023-05-24T11:00:53.381Z,56.95
2023-05-24T11:03:24.613Z,58.02
2023-05-24T11:05:55.355Z,60.99
2023-05-24T11:08:27.471Z,60.55
2023-05-24T11:11:22.318Z,61.60
2023-05-24T11:13:57.662Z,62.11
2023-05-24T11:16:39.271Z,61.01
2023-05-24T11:19:15.058Z,61.75
2023-05-24T11:21:45.479Z,61.22
2023-05-24T11:24:13.152Z,59.05
2023-05-24T11:26:41.146Z,58.72
2023-05-24T11:29:09.132Z,57.90
2023-05-24T11:31:43.162Z,57.69
2023-05-24T11:34:11.831Z,57.57
2023-05-24T11:36:39.662Z,57.82
2023-05-24T11:39:09.418Z,55.98
2023-05-24T11:41:38.943Z,56.48
2023-05-24T11:44:09.723Z,56.89
2023-05-24T11:46:40.084Z,54.74
2023-05-24T11:49:07.763Z,55.16
2023-05-24T11:51:37.480Z,54.57
2023-05-24T11:54:05.229Z,55.32
2023-05-24T11:56:34.054Z,54.75
2023-05-24T11:59:09.685Z,57.93
2023-05-24T12:01:39.210Z,61.74
2023-05-24T12:04:08.730Z,61.21
2023-05-24T12:06:39.578Z,61.00
2023-05-24T12:09:10.357Z,61.61
2023-05-24T12:11:42.183Z,62.10
2023-05-24T12:14:13.562Z,60.60
2023-05-24T12:16:43.136Z,59.80
2023-05-24T12:19:31.744Z,59.81
2023-05-24T12:22:01.220Z,59.41
2023-05-24T12:24:28.958Z,58.22
2023-05-24T12:27:01.180Z,57.41
2023-05-24T12:29:28.841Z,56.60
2023-05-24T12:31:57.630Z,56.06
2023-05-24T12:34:25.340Z,56.47
2023-05-24T12:36:57.034Z,55.30
2023-05-24T12:39:31.017Z,54.95
2023-05-24T12:42:01.587Z,54.71
2023-05-24T12:44:30.038Z,55.79
2023-05-24T12:46:59.720Z,55.84
2023-05-24T12:49:27.836Z,53.96
2023-05-24T12:51:56.565Z,55.54
2023-05-24T12:54:25.520Z,54.08
2023-05-24T12:56:56.769Z,53.95
2023-05-24T12:59:25.236Z,54.23
2023-05-24T13:01:53.122Z,53.97
2023-05-24T13:04:24.383Z,55.46
2023-05-24T13:06:52.013Z,56.64
2023-05-24T13:09:22.367Z,57.61
2023-05-24T13:11:49.879Z,58.88
2023-05-24T13:14:18.178Z,58.58
2023-05-24T13:16:45.950Z,57.95
2023-05-24T13:19:13.769Z,57.08
2023-05-24T13:21:42.724Z,57.75
2023-05-24T13:24:10.329Z,55.90
2023-05-24T13:26:38.698Z,56.12
2023-05-24T13:31:38.304Z,55.50
2023-05-24T13:34:05.944Z,55.96
2023-05-24T13:36:33.592Z,55.97
2023-05-24T13:39:14.920Z,55.93
2023-05-24T13:41:43.790Z,54.89
2023-05-24T13:44:11.585Z,55.02
2023-05-24T13:46:39.321Z,54.13
2023-05-24T13:49:07.241Z,54.55
2023-05-24T13:51:34.753Z,55.00
2023-05-24T13:54:04.859Z,55.62
2023-05-24T13:56:34.188Z,53.48
2023-05-24T13:59:02.680Z,53.73
2023-05-24T14:01:30.428Z,54.90
2023-05-24T14:03:57.894Z,52.66
2023-05-24T14:06:25.472Z,52.99
2023-05-24T14:08:53.041Z,52.76
2023-05-24T14:11:22.309Z,51.68
2023-05-24T14:16:21.164Z,54.00
2023-05-24T14:18:50.232Z,56.59
2023-05-24T14:21:18.908Z,56.51
2023-05-24T14:23:46.383Z,56.29
2023-05-24T14:26:14.026Z,54.55
2023-05-24T14:28:42.832Z,55.09
2023-05-24T14:31:10.391Z,55.62
2023-05-24T14:33:38.811Z,56.23
2023-05-24T14:36:06.949Z,54.89
2023-05-24T14:38:34.530Z,55.05
2023-05-24T14:41:02.084Z,55.11
2023-05-24T14:43:29.629Z,54.59
2023-05-24T14:45:58.573Z,55.30
2023-05-24T14:48:26.086Z,54.35
2023-05-24T14:50:53.624Z,53.60
2023-05-24T14:53:21.094Z,57.24
2023-05-24T14:55:48.734Z,54.80
2023-05-24T14:58:16.316Z,56.47
2023-05-24T15:00:44.206Z,55.92
2023-05-24T15:03:14.581Z,54.60
2023-05-24T15:05:42.742Z,55.28
2023-05-24T15:08:10.953Z,54.10
2023-05-24T15:10:39.921Z,53.85
2023-05-24T15:13:08.126Z,56.77
2023-05-24T15:15:35.858Z,55.40
2023-05-24T15:18:03.441Z,56.59
2023-05-24T15:20:35.796Z,54.16
2023-05-24T15:23:03.807Z,54.79
2023-05-24T15:25:31.357Z,55.92
2023-05-24T15:27:58.879Z,55.22
2023-05-24T15:30:26.547Z,55.49
2023-05-24T15:32:54.089Z,56.76
2023-05-24T15:35:21.806Z,55.72
2023-05-24T15:37:50.612Z,54.87
2023-05-24T15:40:18.686Z,54.22
2023-05-24T15:42:46.415Z,54.45
2023-05-24T15:45:13.983Z,56.31
2023-05-24T15:47:41.500Z,57.64
2023-05-24T15:50:09.961Z,57.82
2023-05-24T15:52:37.544Z,57.02
2023-05-24T15:55:07.631Z,55.68
2023-05-24T15:57:35.234Z,55.21
2023-05-24T16:00:03.880Z,55.12
2023-05-24T16:02:31.467Z,54.51
2023-05-24T16:04:58.940Z,54.64
2023-05-24T16:07:26.447Z,55.40
2023-05-24T16:09:54.120Z,54.66
2023-05-24T16:12:22.905Z,55.88
2023-05-24T16:14:50.534Z,54.64
2023-05-24T16:17:18.074Z,54.96
2023-05-24T16:19:47.117Z,55.03
2023-05-24T16:22:14.742Z,54.74
2023-05-24T16:24:42.626Z,55.27
2023-05-24T16:27:10.222Z,55.57
2023-05-24T16:29:39.369Z,56.07
2023-05-24T16:32:08.617Z,55.22
2023-05-24T16:34:52.108Z,55.66
2023-05-24T16:37:23.272Z,54.30
2023-05-24T16:39:50.806Z,54.71
2023-05-24T16:42:18.337Z,54.37
2023-05-24T16:44:47.155Z,54.40
2023-05-24T16:47:14.726Z,55.12
2023-05-24T16:49:42.322Z,55.74
2023-05-24T16:52:09.838Z,55.32
2023-05-24T16:54:37.360Z,55.03
2023-05-24T16:57:05.228Z,57.38
2023-05-24T16:59:32.874Z,57.18
2023-05-24T17:02:01.809Z,56.24
2023-05-24T17:04:29.342Z,55.08
2023-05-24T17:06:56.779Z,54.63
2023-05-24T17:09:24.339Z,54.80
2023-05-24T17:11:51.842Z,56.59
2023-05-24T17:14:19.515Z,56.77
2023-05-24T17:16:47.097Z,56.84
2023-05-24T17:19:16.017Z,56.11
2023-05-24T17:21:43.546Z,55.30
2023-05-24T17:24:11.183Z,55.48
2023-05-24T17:26:39.031Z,54.59
2023-05-24T17:29:06.573Z,56.76
2023-05-24T17:31:34.382Z,55.28
2023-05-24T17:34:01.970Z,55.70
2023-05-24T17:36:33.446Z,54.90
2023-05-24T17:39:00.950Z,55.40
2023-05-24T17:41:28.553Z,55.94
2023-05-24T17:43:56.018Z,55.55
2023-05-24T17:46:23.615Z,56.38
2023-05-24T17:48:51.866Z,55.82
2023-05-24T17:51:19.915Z,57.52
2023-05-24T17:53:48.660Z,57.47
2023-05-24T17:56:16.154Z,56.84
2023-05-24T17:58:44.938Z,56.58
2023-05-24T18:01:15.196Z,56.00
2023-05-24T18:03:42.779Z,56.78
2023-05-24T18:06:10.378Z,58.28
2023-05-24T18:08:43.063Z,58.41
2023-05-24T18:11:13.268Z,59.67
2023-05-24T18:13:41.974Z,60.43
2023-05-24T18:16:11.016Z,58.79
2023-05-24T18:18:38.879Z,58.15
2023-05-24T18:21:06.750Z,60.02
2023-05-24T18:23:37.699Z,59.12
2023-05-24T18:26:07.947Z,57.80
2023-05-24T18:28:38.005Z,57.47
2023-05-24T18:31:08.292Z,59.32
2023-05-24T18:33:36.032Z,58.89
2023-05-24T18:36:04.404Z,58.61
2023-05-24T18:38:32.477Z,59.04
2023-05-24T18:40:59.944Z,58.31
2023-05-24T18:43:27.513Z,58.29
2023-05-24T18:45:56.438Z,59.42
2023-05-24T18:48:23.968Z,58.97
2023-05-24T18:50:52.055Z,59.20
2023-05-24T18:53:19.618Z,59.03
2023-05-24T18:55:47.873Z,58.20
2023-05-24T18:58:15.460Z,59.40
2023-05-24T19:00:43.025Z,59.51
2023-05-24T19:03:13.150Z,59.44
2023-05-24T19:05:43.514Z,59.61
2023-05-24T19:08:11.871Z,59.44
2023-05-24T19:10:39.468Z,59.24
2023-05-24T19:13:06.985Z,59.29
2023-05-24T19:15:36.581Z,59.52
2023-05-24T19:18:04.219Z,59.42
2023-05-24T19:20:33.199Z,59.73
2023-05-24T19:23:00.687Z,60.21
2023-05-24T19:25:28.209Z,59.47
2023-05-24T19:27:59.816Z,59.58
2023-05-24T19:30:27.888Z,60.00
2023-05-24T19:32:55.474Z,61.40
2023-05-24T19:35:23.212Z,61.49
2023-05-24T19:37:52.537Z,61.46
2023-05-24T19:40:20.295Z,61.75
2023-05-24T19:42:47.740Z,62.60
2023-05-24T19:45:15.269Z,61.68
2023-05-24T19:47:42.836Z,61.69
2023-05-24T19:50:13.328Z,61.82
2023-05-24T19:52:40.827Z,61.77
2023-05-24T19:55:10.775Z,61.92
2023-05-24T19:57:38.267Z,61.63
2023-05-24T20:00:07.022Z,62.03
2023-05-24T20:02:36.539Z,62.19
2023-05-24T20:05:04.847Z,62.75
2023-05-24T20:07:32.433Z,63.43
2023-05-24T20:10:00.814Z,63.51
2023-05-24T20:12:30.812Z,62.85
2023-05-24T20:14:58.243Z,62.43
2023-05-24T20:17:25.725Z,62.42
2023-05-24T20:19:53.240Z,62.71
2023-05-24T20:22:21.014Z,62.65
2023-05-24T20:24:48.479Z,62.19
2023-05-24T20:27:15.977Z,63.67
2023-05-24T20:29:44.969Z,63.50
2023-05-24T20:32:12.418Z,64.50
2023-05-24T20:34:39.952Z,64.08
2023-05-24T20:37:07.511Z,64.26
2023-05-24T20:39:34.989Z,64.42
2023-05-24T20:42:02.405Z,64.88
2023-05-24T20:44:29.887Z,64.61
2023-05-24T20:46:58.636Z,64.46
2023-05-24T20:49:26.158Z,64.22
2023-05-24T20:51:53.586Z,65.00
2023-05-24T20:54:21.059Z,64.97
2023-05-24T20:56:48.466Z,64.33
2023-05-24T20:59:16.021Z,64.62
2023-05-24T21:01:43.802Z,64.76
2023-05-24T21:04:12.628Z,65.09
2023-05-24T21:06:40.387Z,65.71
2023-05-24T21:09:07.843Z,65.78
2023-05-24T21:11:35.414Z,65.39
2023-05-24T21:14:02.974Z,66.76
2023-05-24T21:16:30.516Z,66.07
2023-05-24T21:19:00.698Z,65.72
2023-05-24T21:21:29.497Z,65.96
2023-05-24T21:23:57.776Z,66.63
2023-05-24T21:26:26.417Z,66.43
2023-05-24T21:28:53.925Z,66.30
2023-05-24T21:31:21.556Z,68.51
2023-05-24T21:33:49.298Z,69.41
2023-05-24T21:36:18.410Z,70.13
2023-05-24T21:38:47.685Z,67.18
2023-05-24T21:41:15.114Z,68.19
2023-05-24T21:43:42.826Z,71.59
2023-05-24T21:46:10.279Z,70.55
2023-05-24T21:48:37.753Z,71.14
2023-05-24T21:51:05.262Z,70.71
2023-05-24T21:53:34.823Z,70.00
2023-05-24T21:56:03.633Z,69.61
2023-05-24T21:58:31.180Z,71.79
2023-05-24T22:00:58.664Z,74.01
2023-05-24T22:03:26.248Z,71.40
2023-05-24T22:05:53.756Z,71.47
2023-05-24T22:08:21.207Z,72.68
2023-05-24T22:10:48.668Z,71.64
2023-05-24T22:13:17.522Z,71.73
2023-05-24T22:15:45.164Z,72.21
2023-05-24T22:18:17.429Z,74.10
2023-05-24T22:20:45.734Z,71.68
2023-05-24T22:23:14.721Z,72.21
2023-05-24T22:25:42.632Z,74.20
2023-05-24T22:28:10.259Z,74.33
2023-05-24T22:30:40.671Z,74.27
2023-05-24T22:33:08.237Z,75.00
2023-05-24T22:35:35.729Z,74.04
2023-05-24T22:38:03.251Z,73.74
2023-05-24T22:40:30.730Z,73.21
2023-05-24T22:42:58.171Z,73.81
2023-05-24T22:45:25.593Z,73.24
2023-05-24T22:47:58.276Z,73.64
2023-05-24T22:50:26.213Z,74.15
2023-05-24T22:52:56.484Z,72.43
2023-05-24T22:55:24.403Z,70.65
2023-05-24T22:57:51.911Z,70.85
2023-05-24T23:00:20.583Z,70.58
2023-05-24T23:02:48.125Z,70.38
2023-05-24T23:05:17.290Z,69.95
2023-05-24T23:07:45.945Z,70.05
2023-05-24T23:10:13.406Z,70.44
2023-05-24T23:12:42.211Z,70.17
2023-05-24T23:15:11.464Z,70.37
2023-05-24T23:17:38.954Z,69.22
2023-05-24T23:20:09.908Z,69.54
2023-05-24T23:22:38.948Z,69.74
2023-05-24T23:25:07.927Z,69.91
2023-05-24T23:27:35.512Z,70.92
2023-05-24T23:30:02.966Z,70.55
2023-05-24T23:32:30.453Z,70.45
2023-05-24T23:34:57.898Z,70.21
2023-05-24T23:37:25.458Z,70.65
2023-05-24T23:39:54.233Z,70.28
2023-05-24T23:42:21.669Z,71.42
2023-05-24T23:44:49.098Z,70.82
2023-05-24T23:47:16.680Z,69.89
2023-05-24T23:49:44.148Z,70.47
2023-05-24T23:52:12.152Z,70.71
2023-05-24T23:54:39.895Z,70.73
2023-05-24T23:57:08.675Z,70.86
2023-05-24T23:59:36.336Z,70.71
